Etusivu
METAR-TAF:

METAR-TAF

Lentoasemat :

Vamdrup

Kolding, Tanska

Leveyspiiri: 55-26N, Pituuspiiri: 009-20E, korkeus merenpinnasta: 44 m

Tämänhetkinen sää

Tämä raportti tehtiin 24 minuuttia sitten, kello 15.20 UTC
Tuuli 11 kn lännestä, vaihdellen lännen/lounaan ja luoteen välillä
Lämpötila 24°C
Kosteus 61%
Ilmanpaine 1016 hPa

METAR: EKVD 231520Z AUTO 27011KT 250V310 //// ///////// 24/16 Q1016

Aika: 17:44 (15:44 UTC)

Sääennuste

Tämä raportti tehtiin 3 tuntia ja 47 minuuttia sitten, kello 11.57 UTC
Ennuste voimassa 23. päivästä klo 12 UTC - 23. päivään klo 16 UTC
Tuuli 8 kn lännestä
Näkyvyys 10 km tai enemmän
Hajanaisia pilviä 3000 ft:n korkeudessa

TAF: EKVD 231157Z 2312/2316 26008KT 9999 SCT030

Säähavainnot ja -ennusteet yli 4000 lentoasemalta (METAR- ja TAF-raportit).

Käytössä olevat sääasemat on merkitty karttaan keltaisilla ja punaisilla pisteillä.

Aseta hiiri pisteen päälle nähdäksesi sääaseman nimen.

Klikkaa sitten nähdäksesi säähavainnot ja -ennusteet.

Kartan vaihtaminen: klikkaa mustalla rastilla varustettuja vihreitä pisteitä, niin voit zoomata sisään; viivalla varustettua vihreää pistettä, niin voit zoomata ulos tai vihreitä nuolia, niin pääset viereisille kartoille.


METAR-TAF: